Terminal Aerodrome Forecast
Issued by NWS Topeka, KS

Home | Current Version | Previous Version | Text Only | Print | Product List | Glossary Off
Versions: 1 2 3 4 5 6 7 8 9 10 11 12 13 14 15 16 17 18 19 20 21 22 23 24

000
FTUS43 KTOP 201234 AAB
TAFTOP
TAF AMD
KTOP 201234Z 2013/2112 36005KT P6SM VCSH BKN020
      TEMPO 2013/2016 4SM TS BKN015CB
     FM201600 36004KT P6SM VCSH OVC020
     FM202300 01005KT P6SM OVC030
     FM210800 VRB04KT P6SM OVC010=

USA.gov is the U.S. government's official web portal to all federal, state and local government web resources and services.